sensor_id;sensor_type;location;lat;lon;timestamp;P1;durP1;ratioP1;P2;durP2;ratioP2
5357;SDS011;2702;51.014;7.170;2022-12-18T00:01:18;9.35;;;6.53;;
5357;SDS011;2702;51.014;7.170;2022-12-18T00:03:46;8.73;;;6.82;;
5357;SDS011;2702;51.014;7.170;2022-12-18T00:06:13;9.75;;;7.30;;
5357;SDS011;2702;51.014;7.170;2022-12-18T00:08:40;9.13;;;6.55;;
5357;SDS011;2702;51.014;7.170;2022-12-18T00:11:08;7.38;;;6.60;;
5357;SDS011;2702;51.014;7.170;2022-12-18T00:13:39;7.82;;;6.20;;
5357;SDS011;2702;51.014;7.170;2022-12-18T00:16:06;8.93;;;6.25;;
5357;SDS011;2702;51.014;7.170;2022-12-18T00:18:34;8.63;;;6.28;;
5357;SDS011;2702;51.014;7.170;2022-12-18T00:21:01;7.40;;;6.50;;
5357;SDS011;2702;51.014;7.170;2022-12-18T00:23:29;8.20;;;6.63;;
5357;SDS011;2702;51.014;7.170;2022-12-18T00:26:02;9.52;;;7.00;;
5357;SDS011;2702;51.014;7.170;2022-12-18T00:28:30;8.25;;;7.43;;
5357;SDS011;2702;51.014;7.170;2022-12-18T00:31:15;8.40;;;7.00;;
5357;SDS011;2702;51.014;7.170;2022-12-18T00:33:42;9.73;;;6.50;;
5357;SDS011;2702;51.014;7.170;2022-12-18T00:36:09;7.28;;;5.95;;
5357;SDS011;2702;51.014;7.170;2022-12-18T00:38:43;9.23;;;6.72;;
5357;SDS011;2702;51.014;7.170;2022-12-18T00:41:10;9.02;;;6.90;;
5357;SDS011;2702;51.014;7.170;2022-12-18T00:43:37;9.13;;;7.40;;
5357;SDS011;2702;51.014;7.170;2022-12-18T00:46:04;9.65;;;5.72;;
5357;SDS011;2702;51.014;7.170;2022-12-18T00:48:31;7.70;;;6.82;;
5357;SDS011;2702;51.014;7.170;2022-12-18T00:50:58;10.38;;;7.07;;
5357;SDS011;2702;51.014;7.170;2022-12-18T00:53:23;9.07;;;6.63;;
5357;SDS011;2702;51.014;7.170;2022-12-18T00:55:49;8.67;;;6.80;;
5357;SDS011;2702;51.014;7.170;2022-12-18T00:58:15;8.37;;;6.87;;
5357;SDS011;2702;51.014;7.170;2022-12-18T01:00:42;8.73;;;6.80;;
5357;SDS011;2702;51.014;7.170;2022-12-18T01:03:09;8.63;;;6.40;;
5357;SDS011;2702;51.014;7.170;2022-12-18T01:05:41;9.73;;;6.60;;
5357;SDS011;2702;51.014;7.170;2022-12-18T01:08:07;9.95;;;6.05;;
5357;SDS011;2702;51.014;7.170;2022-12-18T01:10:33;9.77;;;6.67;;
5357;SDS011;2702;51.014;7.170;2022-12-18T01:12:59;7.33;;;6.13;;
5357;SDS011;2702;51.014;7.170;2022-12-18T01:15:25;6.60;;;5.70;;
5357;SDS011;2702;51.014;7.170;2022-12-18T01:17:51;8.70;;;6.83;;
5357;SDS011;2702;51.014;7.170;2022-12-18T01:20:18;8.50;;;5.57;;
5357;SDS011;2702;51.014;7.170;2022-12-18T01:22:44;8.93;;;7.47;;
5357;SDS011;2702;51.014;7.170;2022-12-18T01:25:10;8.77;;;6.60;;
5357;SDS011;2702;51.014;7.170;2022-12-18T01:27:35;6.43;;;5.63;;
5357;SDS011;2702;51.014;7.170;2022-12-18T01:30:01;8.20;;;6.20;;
5357;SDS011;2702;51.014;7.170;2022-12-18T01:32:29;7.95;;;6.00;;
5357;SDS011;2702;51.014;7.170;2022-12-18T01:34:56;9.65;;;6.60;;
5357;SDS011;2702;51.014;7.170;2022-12-18T01:37:22;8.60;;;5.23;;
5357;SDS011;2702;51.014;7.170;2022-12-18T01:39:48;8.30;;;6.07;;
5357;SDS011;2702;51.014;7.170;2022-12-18T01:42:15;6.85;;;5.43;;
5357;SDS011;2702;51.014;7.170;2022-12-18T01:45:01;8.52;;;6.45;;
5357;SDS011;2702;51.014;7.170;2022-12-18T01:53:05;6.53;;;5.60;;
5357;SDS011;2702;51.014;7.170;2022-12-18T01:55:40;7.05;;;5.90;;
5357;SDS011;2702;51.014;7.170;2022-12-18T01:58:12;7.45;;;5.70;;
5357;SDS011;2702;51.014;7.170;2022-12-18T02:00:39;6.70;;;6.00;;
5357;SDS011;2702;51.014;7.170;2022-12-18T02:03:05;6.93;;;5.70;;
5357;SDS011;2702;51.014;7.170;2022-12-18T02:05:40;5.70;;;5.10;;
5357;SDS011;2702;51.014;7.170;2022-12-18T02:08:31;8.25;;;5.68;;
5357;SDS011;2702;51.014;7.170;2022-12-18T02:11:08;6.57;;;5.28;;
5357;SDS011;2702;51.014;7.170;2022-12-18T02:18:44;8.00;;;5.80;;
5357;SDS011;2702;51.014;7.170;2022-12-18T02:24:17;5.50;;;4.63;;
5357;SDS011;2702;51.014;7.170;2022-12-18T02:27:05;5.57;;;5.00;;
5357;SDS011;2702;51.014;7.170;2022-12-18T02:29:34;6.57;;;5.53;;
5357;SDS011;2702;51.014;7.170;2022-12-18T02:32:06;7.20;;;5.32;;
5357;SDS011;2702;51.014;7.170;2022-12-18T02:34:38;5.68;;;4.88;;
5357;SDS011;2702;51.014;7.170;2022-12-18T02:37:05;6.22;;;5.20;;
5357;SDS011;2702;51.014;7.170;2022-12-18T02:39:36;6.43;;;5.43;;
5357;SDS011;2702;51.014;7.170;2022-12-18T02:42:04;7.47;;;5.68;;
5357;SDS011;2702;51.014;7.170;2022-12-18T02:44:41;7.32;;;5.72;;
5357;SDS011;2702;51.014;7.170;2022-12-18T02:47:10;6.88;;;5.80;;
5357;SDS011;2702;51.014;7.170;2022-12-18T02:58:01;5.35;;;4.22;;
5357;SDS011;2702;51.014;7.170;2022-12-18T03:00:39;5.53;;;4.50;;
5357;SDS011;2702;51.014;7.170;2022-12-18T03:03:17;7.95;;;4.90;;
5357;SDS011;2702;51.014;7.170;2022-12-18T03:06:00;7.13;;;5.18;;
5357;SDS011;2702;51.014;7.170;2022-12-18T03:08:42;5.55;;;4.90;;
5357;SDS011;2702;51.014;7.170;2022-12-18T03:11:12;5.60;;;4.60;;
5357;SDS011;2702;51.014;7.170;2022-12-18T03:13:41;5.85;;;5.00;;
5357;SDS011;2702;51.014;7.170;2022-12-18T03:16:15;5.90;;;4.80;;
5357;SDS011;2702;51.014;7.170;2022-12-18T03:18:48;6.47;;;5.07;;
5357;SDS011;2702;51.014;7.170;2022-12-18T03:21:35;6.70;;;4.70;;
5357;SDS011;2702;51.014;7.170;2022-12-18T03:24:06;5.38;;;4.43;;
5357;SDS011;2702;51.014;7.170;2022-12-18T03:26:34;7.00;;;5.25;;
5357;SDS011;2702;51.014;7.170;2022-12-18T03:29:04;6.30;;;4.38;;
5357;SDS011;2702;51.014;7.170;2022-12-18T03:31:34;4.75;;;4.22;;
5357;SDS011;2702;51.014;7.170;2022-12-18T03:34:01;5.80;;;4.85;;
5357;SDS011;2702;51.014;7.170;2022-12-18T03:36:37;7.80;;;4.85;;
5357;SDS011;2702;51.014;7.170;2022-12-18T03:39:03;6.30;;;4.90;;
5357;SDS011;2702;51.014;7.170;2022-12-18T03:44:03;7.03;;;4.75;;
5357;SDS011;2702;51.014;7.170;2022-12-18T03:49:33;7.57;;;4.88;;
5357;SDS011;2702;51.014;7.170;2022-12-18T03:52:21;5.65;;;4.78;;
5357;SDS011;2702;51.014;7.170;2022-12-18T03:54:50;4.93;;;4.03;;
5357;SDS011;2702;51.014;7.170;2022-12-18T03:57:21;6.57;;;4.80;;
5357;SDS011;2702;51.014;7.170;2022-12-18T03:59:51;5.53;;;4.55;;
5357;SDS011;2702;51.014;7.170;2022-12-18T04:02:23;6.20;;;4.65;;
5357;SDS011;2702;51.014;7.170;2022-12-18T04:04:51;5.45;;;4.75;;
5357;SDS011;2702;51.014;7.170;2022-12-18T04:07:20;7.85;;;5.05;;
5357;SDS011;2702;51.014;7.170;2022-12-18T04:09:48;5.22;;;4.65;;
5357;SDS011;2702;51.014;7.170;2022-12-18T04:12:16;6.63;;;5.22;;
5357;SDS011;2702;51.014;7.170;2022-12-18T04:14:41;5.93;;;4.40;;
5357;SDS011;2702;51.014;7.170;2022-12-18T04:17:07;6.97;;;4.80;;
5357;SDS011;2702;51.014;7.170;2022-12-18T04:19:33;6.00;;;4.87;;
5357;SDS011;2702;51.014;7.170;2022-12-18T04:21:59;6.40;;;4.57;;
5357;SDS011;2702;51.014;7.170;2022-12-18T04:24:24;7.10;;;4.40;;
5357;SDS011;2702;51.014;7.170;2022-12-18T04:26:50;6.17;;;4.90;;
5357;SDS011;2702;51.014;7.170;2022-12-18T04:29:16;8.30;;;5.30;;
5357;SDS011;2702;51.014;7.170;2022-12-18T04:31:42;4.90;;;4.40;;
5357;SDS011;2702;51.014;7.170;2022-12-18T04:34:08;5.87;;;4.43;;
5357;SDS011;2702;51.014;7.170;2022-12-18T04:36:34;6.30;;;4.73;;
5357;SDS011;2702;51.014;7.170;2022-12-18T04:38:59;5.30;;;4.80;;
5357;SDS011;2702;51.014;7.170;2022-12-18T04:41:25;8.17;;;4.53;;
5357;SDS011;2702;51.014;7.170;2022-12-18T04:43:51;5.73;;;4.60;;
5357;SDS011;2702;51.014;7.170;2022-12-18T04:46:17;6.73;;;4.70;;
5357;SDS011;2702;51.014;7.170;2022-12-18T04:48:44;4.87;;;4.17;;
5357;SDS011;2702;51.014;7.170;2022-12-18T04:51:11;5.68;;;4.70;;
5357;SDS011;2702;51.014;7.170;2022-12-18T04:53:37;4.72;;;4.15;;
5357;SDS011;2702;51.014;7.170;2022-12-18T04:56:08;6.17;;;4.57;;
5357;SDS011;2702;51.014;7.170;2022-12-18T04:58:36;5.32;;;4.20;;
5357;SDS011;2702;51.014;7.170;2022-12-18T05:01:04;4.93;;;4.35;;
5357;SDS011;2702;51.014;7.170;2022-12-18T05:03:30;8.32;;;5.07;;
5357;SDS011;2702;51.014;7.170;2022-12-18T05:05:56;7.05;;;4.90;;
5357;SDS011;2702;51.014;7.170;2022-12-18T05:08:22;4.30;;;3.90;;
5357;SDS011;2702;51.014;7.170;2022-12-18T05:10:48;5.28;;;4.55;;
5357;SDS011;2702;51.014;7.170;2022-12-18T05:13:14;6.33;;;4.87;;
5357;SDS011;2702;51.014;7.170;2022-12-18T05:15:40;5.80;;;4.90;;
5357;SDS011;2702;51.014;7.170;2022-12-18T05:18:07;6.82;;;5.18;;
5357;SDS011;2702;51.014;7.170;2022-12-18T05:20:33;6.25;;;4.95;;
5357;SDS011;2702;51.014;7.170;2022-12-18T05:22:59;6.70;;;4.97;;
5357;SDS011;2702;51.014;7.170;2022-12-18T05:25:25;6.23;;;4.93;;
5357;SDS011;2702;51.014;7.170;2022-12-18T05:27:50;7.50;;;5.50;;
5357;SDS011;2702;51.014;7.170;2022-12-18T05:30:16;6.53;;;4.80;;
5357;SDS011;2702;51.014;7.170;2022-12-18T05:32:42;5.83;;;4.80;;
5357;SDS011;2702;51.014;7.170;2022-12-18T05:35:09;6.95;;;5.07;;
5357;SDS011;2702;51.014;7.170;2022-12-18T05:37:36;6.30;;;5.00;;
5357;SDS011;2702;51.014;7.170;2022-12-18T05:40:03;7.30;;;5.20;;
5357;SDS011;2702;51.014;7.170;2022-12-18T05:42:30;7.78;;;4.78;;
5357;SDS011;2702;51.014;7.170;2022-12-18T05:44:56;7.90;;;4.77;;
5357;SDS011;2702;51.014;7.170;2022-12-18T05:47:21;7.60;;;5.57;;
5357;SDS011;2702;51.014;7.170;2022-12-18T05:49:47;6.80;;;4.97;;
5357;SDS011;2702;51.014;7.170;2022-12-18T05:52:13;6.57;;;4.70;;
5357;SDS011;2702;51.014;7.170;2022-12-18T05:54:39;6.77;;;5.20;;
5357;SDS011;2702;51.014;7.170;2022-12-18T05:57:05;7.37;;;5.40;;
5357;SDS011;2702;51.014;7.170;2022-12-18T05:59:31;6.60;;;4.97;;
5357;SDS011;2702;51.014;7.170;2022-12-18T06:01:57;8.00;;;5.73;;
5357;SDS011;2702;51.014;7.170;2022-12-18T06:04:22;6.57;;;5.50;;
5357;SDS011;2702;51.014;7.170;2022-12-18T06:06:48;8.30;;;5.50;;
5357;SDS011;2702;51.014;7.170;2022-12-18T06:09:14;6.97;;;5.00;;
5357;SDS011;2702;51.014;7.170;2022-12-18T06:11:40;7.30;;;5.63;;
5357;SDS011;2702;51.014;7.170;2022-12-18T06:14:06;8.43;;;6.23;;
5357;SDS011;2702;51.014;7.170;2022-12-18T06:16:34;7.82;;;5.60;;
5357;SDS011;2702;51.014;7.170;2022-12-18T06:19:01;8.47;;;6.50;;
5357;SDS011;2702;51.014;7.170;2022-12-18T06:21:29;7.30;;;6.50;;
5357;SDS011;2702;51.014;7.170;2022-12-18T06:23:55;9.55;;;7.60;;
5357;SDS011;2702;51.014;7.170;2022-12-18T06:26:22;8.90;;;6.38;;
5357;SDS011;2702;51.014;7.170;2022-12-18T06:28:49;7.75;;;5.88;;
5357;SDS011;2702;51.014;7.170;2022-12-18T06:31:15;7.93;;;6.17;;
5357;SDS011;2702;51.014;7.170;2022-12-18T06:33:41;9.60;;;6.50;;
5357;SDS011;2702;51.014;7.170;2022-12-18T06:36:10;8.87;;;6.37;;
5357;SDS011;2702;51.014;7.170;2022-12-18T06:38:38;9.02;;;7.00;;
5357;SDS011;2702;51.014;7.170;2022-12-18T06:41:13;8.15;;;6.55;;
5357;SDS011;2702;51.014;7.170;2022-12-18T06:43:42;8.85;;;7.00;;
5357;SDS011;2702;51.014;7.170;2022-12-18T06:46:09;7.80;;;5.65;;
5357;SDS011;2702;51.014;7.170;2022-12-18T06:48:35;9.35;;;6.90;;
5357;SDS011;2702;51.014;7.170;2022-12-18T06:51:02;7.75;;;5.82;;
5357;SDS011;2702;51.014;7.170;2022-12-18T06:53:28;8.98;;;6.95;;
5357;SDS011;2702;51.014;7.170;2022-12-18T06:56:04;9.07;;;7.15;;
5357;SDS011;2702;51.014;7.170;2022-12-18T06:58:32;9.98;;;7.10;;
5357;SDS011;2702;51.014;7.170;2022-12-18T07:01:01;7.53;;;6.32;;
5357;SDS011;2702;51.014;7.170;2022-12-18T07:03:29;10.10;;;6.85;;
5357;SDS011;2702;51.014;7.170;2022-12-18T07:05:55;8.95;;;6.53;;
5357;SDS011;2702;51.014;7.170;2022-12-18T07:08:21;8.73;;;7.60;;
5357;SDS011;2702;51.014;7.170;2022-12-18T07:10:47;8.07;;;6.75;;
5357;SDS011;2702;51.014;7.170;2022-12-18T07:13:14;9.13;;;7.00;;
5357;SDS011;2702;51.014;7.170;2022-12-18T07:15:41;9.95;;;6.82;;
5357;SDS011;2702;51.014;7.170;2022-12-18T07:18:07;8.32;;;6.10;;
5357;SDS011;2702;51.014;7.170;2022-12-18T07:20:33;7.60;;;5.77;;
5357;SDS011;2702;51.014;7.170;2022-12-18T07:23:01;8.40;;;6.53;;
5357;SDS011;2702;51.014;7.170;2022-12-18T07:25:33;9.90;;;6.82;;
5357;SDS011;2702;51.014;7.170;2022-12-18T07:28:02;8.50;;;5.78;;
5357;SDS011;2702;51.014;7.170;2022-12-18T07:30:29;7.95;;;6.80;;
5357;SDS011;2702;51.014;7.170;2022-12-18T07:32:54;8.67;;;6.40;;
5357;SDS011;2702;51.014;7.170;2022-12-18T07:35:20;11.47;;;7.20;;
5357;SDS011;2702;51.014;7.170;2022-12-18T07:37:46;9.07;;;6.50;;
5357;SDS011;2702;51.014;7.170;2022-12-18T07:40:12;10.40;;;6.70;;
5357;SDS011;2702;51.014;7.170;2022-12-18T07:42:37;11.30;;;7.60;;
5357;SDS011;2702;51.014;7.170;2022-12-18T07:45:04;10.00;;;6.50;;
5357;SDS011;2702;51.014;7.170;2022-12-18T07:47:30;8.70;;;6.63;;
5357;SDS011;2702;51.014;7.170;2022-12-18T07:49:56;8.03;;;5.90;;
5357;SDS011;2702;51.014;7.170;2022-12-18T07:52:22;7.90;;;5.90;;
5357;SDS011;2702;51.014;7.170;2022-12-18T07:54:47;8.87;;;6.17;;
5357;SDS011;2702;51.014;7.170;2022-12-18T07:57:15;12.25;;;6.30;;
5357;SDS011;2702;51.014;7.170;2022-12-18T07:59:42;7.40;;;6.63;;
5357;SDS011;2702;51.014;7.170;2022-12-18T08:02:08;7.95;;;5.95;;
5357;SDS011;2702;51.014;7.170;2022-12-18T08:04:34;10.25;;;6.40;;
5357;SDS011;2702;51.014;7.170;2022-12-18T08:07:00;8.73;;;6.40;;
5357;SDS011;2702;51.014;7.170;2022-12-18T08:09:26;9.33;;;6.23;;
5357;SDS011;2702;51.014;7.170;2022-12-18T08:11:51;8.40;;;6.80;;
5357;SDS011;2702;51.014;7.170;2022-12-18T08:14:18;8.30;;;6.20;;
5357;SDS011;2702;51.014;7.170;2022-12-18T08:16:44;9.60;;;6.70;;
5357;SDS011;2702;51.014;7.170;2022-12-18T08:19:09;6.73;;;5.67;;
5357;SDS011;2702;51.014;7.170;2022-12-18T08:21:35;7.20;;;6.40;;
5357;SDS011;2702;51.014;7.170;2022-12-18T08:24:02;9.45;;;6.60;;
5357;SDS011;2702;51.014;7.170;2022-12-18T08:26:30;9.32;;;6.05;;
5357;SDS011;2702;51.014;7.170;2022-12-18T08:28:57;9.15;;;6.18;;
5357;SDS011;2702;51.014;7.170;2022-12-18T08:31:25;9.52;;;7.25;;
5357;SDS011;2702;51.014;7.170;2022-12-18T08:33:52;8.82;;;6.63;;
5357;SDS011;2702;51.014;7.170;2022-12-18T08:36:19;9.55;;;7.38;;
5357;SDS011;2702;51.014;7.170;2022-12-18T08:38:45;9.45;;;6.68;;
5357;SDS011;2702;51.014;7.170;2022-12-18T08:41:12;10.25;;;6.32;;
5357;SDS011;2702;51.014;7.170;2022-12-18T08:43:40;9.77;;;7.25;;
5357;SDS011;2702;51.014;7.170;2022-12-18T08:46:26;7.57;;;5.78;;
5357;SDS011;2702;51.014;7.170;2022-12-18T08:48:58;9.43;;;7.35;;
5357;SDS011;2702;51.014;7.170;2022-12-18T08:51:24;8.03;;;6.57;;
5357;SDS011;2702;51.014;7.170;2022-12-18T08:53:49;8.63;;;6.23;;
5357;SDS011;2702;51.014;7.170;2022-12-18T08:56:15;9.00;;;6.90;;
5357;SDS011;2702;51.014;7.170;2022-12-18T08:58:42;7.50;;;6.10;;
5357;SDS011;2702;51.014;7.170;2022-12-18T09:01:08;7.57;;;6.00;;
5357;SDS011;2702;51.014;7.170;2022-12-18T09:03:35;7.65;;;6.10;;
5357;SDS011;2702;51.014;7.170;2022-12-18T09:06:02;10.23;;;6.65;;
5357;SDS011;2702;51.014;7.170;2022-12-18T09:08:28;8.25;;;6.40;;
5357;SDS011;2702;51.014;7.170;2022-12-18T09:10:54;7.60;;;5.67;;
5357;SDS011;2702;51.014;7.170;2022-12-18T09:13:20;6.72;;;6.03;;
5357;SDS011;2702;51.014;7.170;2022-12-18T09:15:53;8.73;;;6.03;;
5357;SDS011;2702;51.014;7.170;2022-12-18T09:18:20;5.95;;;5.22;;
5357;SDS011;2702;51.014;7.170;2022-12-18T09:20:48;8.00;;;6.13;;
5357;SDS011;2702;51.014;7.170;2022-12-18T09:23:15;7.82;;;6.75;;
5357;SDS011;2702;51.014;7.170;2022-12-18T09:25:41;7.97;;;6.27;;
5357;SDS011;2702;51.014;7.170;2022-12-18T09:28:11;8.03;;;6.60;;
5357;SDS011;2702;51.014;7.170;2022-12-18T09:30:39;10.05;;;7.10;;
5357;SDS011;2702;51.014;7.170;2022-12-18T09:33:06;8.25;;;6.30;;
5357;SDS011;2702;51.014;7.170;2022-12-18T09:35:35;8.70;;;6.60;;
5357;SDS011;2702;51.014;7.170;2022-12-18T09:38:02;7.80;;;5.80;;
5357;SDS011;2702;51.014;7.170;2022-12-18T09:40:28;8.20;;;6.20;;
5357;SDS011;2702;51.014;7.170;2022-12-18T09:43:01;9.13;;;6.30;;
5357;SDS011;2702;51.014;7.170;2022-12-18T09:45:30;6.55;;;5.40;;
5357;SDS011;2702;51.014;7.170;2022-12-18T09:48:05;7.63;;;6.57;;
5357;SDS011;2702;51.014;7.170;2022-12-18T09:50:37;7.10;;;5.68;;
5357;SDS011;2702;51.014;7.170;2022-12-18T09:53:06;7.28;;;5.82;;
5357;SDS011;2702;51.014;7.170;2022-12-18T09:55:41;7.95;;;5.85;;
5357;SDS011;2702;51.014;7.170;2022-12-18T10:00:38;7.40;;;5.75;;
5357;SDS011;2702;51.014;7.170;2022-12-18T10:03:11;9.17;;;7.27;;
5357;SDS011;2702;51.014;7.170;2022-12-18T10:05:45;7.75;;;6.35;;
5357;SDS011;2702;51.014;7.170;2022-12-18T10:10:57;8.95;;;6.50;;
5357;SDS011;2702;51.014;7.170;2022-12-18T10:13:39;8.38;;;6.28;;
5357;SDS011;2702;51.014;7.170;2022-12-18T10:16:16;8.10;;;6.45;;
5357;SDS011;2702;51.014;7.170;2022-12-18T10:21:24;7.28;;;5.85;;
5357;SDS011;2702;51.014;7.170;2022-12-18T10:26:49;7.35;;;5.68;;
5357;SDS011;2702;51.014;7.170;2022-12-18T10:29:18;7.72;;;6.03;;
5357;SDS011;2702;51.014;7.170;2022-12-18T10:31:45;8.40;;;5.70;;
5357;SDS011;2702;51.014;7.170;2022-12-18T10:34:11;8.80;;;5.83;;
5357;SDS011;2702;51.014;7.170;2022-12-18T10:36:40;7.82;;;5.90;;
5357;SDS011;2702;51.014;7.170;2022-12-18T10:39:14;7.82;;;5.85;;
5357;SDS011;2702;51.014;7.170;2022-12-18T10:41:44;6.97;;;5.95;;
5357;SDS011;2702;51.014;7.170;2022-12-18T10:44:12;7.80;;;5.78;;
5357;SDS011;2702;51.014;7.170;2022-12-18T10:46:43;7.63;;;5.80;;
5357;SDS011;2702;51.014;7.170;2022-12-18T10:49:21;6.43;;;5.30;;
5357;SDS011;2702;51.014;7.170;2022-12-18T10:51:50;7.30;;;5.50;;
5357;SDS011;2702;51.014;7.170;2022-12-18T10:54:29;8.70;;;5.90;;
5357;SDS011;2702;51.014;7.170;2022-12-18T10:59:52;6.93;;;5.13;;
5357;SDS011;2702;51.014;7.170;2022-12-18T11:02:37;8.85;;;6.57;;
5357;SDS011;2702;51.014;7.170;2022-12-18T11:05:22;7.70;;;6.03;;
5357;SDS011;2702;51.014;7.170;2022-12-18T11:07:54;10.65;;;6.35;;
5357;SDS011;2702;51.014;7.170;2022-12-18T11:10:21;8.05;;;6.07;;
5357;SDS011;2702;51.014;7.170;2022-12-18T11:12:53;7.80;;;5.57;;
5357;SDS011;2702;51.014;7.170;2022-12-18T11:15:20;8.65;;;6.03;;
5357;SDS011;2702;51.014;7.170;2022-12-18T11:17:56;6.97;;;6.22;;
5357;SDS011;2702;51.014;7.170;2022-12-18T11:20:32;7.45;;;5.85;;
5357;SDS011;2702;51.014;7.170;2022-12-18T11:23:10;7.88;;;6.38;;
5357;SDS011;2702;51.014;7.170;2022-12-18T11:25:38;8.18;;;6.07;;
5357;SDS011;2702;51.014;7.170;2022-12-18T11:28:06;7.68;;;6.13;;
5357;SDS011;2702;51.014;7.170;2022-12-18T11:33:48;9.75;;;6.40;;
5357;SDS011;2702;51.014;7.170;2022-12-18T11:36:24;7.68;;;6.88;;
5357;SDS011;2702;51.014;7.170;2022-12-18T11:38:54;9.15;;;7.40;;
5357;SDS011;2702;51.014;7.170;2022-12-18T11:44:15;9.48;;;7.38;;
5357;SDS011;2702;51.014;7.170;2022-12-18T11:47:15;10.57;;;7.57;;
5357;SDS011;2702;51.014;7.170;2022-12-18T11:50:14;12.00;;;6.50;;
5357;SDS011;2702;51.014;7.170;2022-12-18T11:52:54;9.20;;;7.13;;
5357;SDS011;2702;51.014;7.170;2022-12-18T11:55:37;9.05;;;7.10;;
5357;SDS011;2702;51.014;7.170;2022-12-18T12:17:36;10.68;;;8.95;;
5357;SDS011;2702;51.014;7.170;2022-12-18T12:25:52;12.27;;;9.50;;
5357;SDS011;2702;51.014;7.170;2022-12-18T12:34:22;11.35;;;8.88;;
5357;SDS011;2702;51.014;7.170;2022-12-18T12:39:34;12.85;;;10.13;;
5357;SDS011;2702;51.014;7.170;2022-12-18T12:42:11;15.43;;;9.60;;
5357;SDS011;2702;51.014;7.170;2022-12-18T12:45:19;12.65;;;9.13;;
5357;SDS011;2702;51.014;7.170;2022-12-18T12:48:00;14.20;;;10.50;;
5357;SDS011;2702;51.014;7.170;2022-12-18T12:50:29;12.00;;;10.07;;
5357;SDS011;2702;51.014;7.170;2022-12-18T12:52:59;13.55;;;9.40;;
5357;SDS011;2702;51.014;7.170;2022-12-18T12:55:31;11.63;;;10.05;;
5357;SDS011;2702;51.014;7.170;2022-12-18T12:58:05;15.48;;;11.45;;
5357;SDS011;2702;51.014;7.170;2022-12-18T13:06:50;15.05;;;11.30;;
5357;SDS011;2702;51.014;7.170;2022-12-18T13:09:15;14.55;;;12.30;;
5357;SDS011;2702;51.014;7.170;2022-12-18T13:11:42;14.57;;;10.17;;
5357;SDS011;2702;51.014;7.170;2022-12-18T13:14:30;15.93;;;11.95;;
5357;SDS011;2702;51.014;7.170;2022-12-18T13:20:06;14.93;;;11.57;;
5357;SDS011;2702;51.014;7.170;2022-12-18T13:22:35;13.48;;;10.40;;
5357;SDS011;2702;51.014;7.170;2022-12-18T13:25:04;14.77;;;10.85;;
5357;SDS011;2702;51.014;7.170;2022-12-18T13:30:41;15.02;;;11.02;;
5357;SDS011;2702;51.014;7.170;2022-12-18T13:38:34;14.18;;;10.82;;
5357;SDS011;2702;51.014;7.170;2022-12-18T13:41:02;14.43;;;10.98;;
5357;SDS011;2702;51.014;7.170;2022-12-18T13:43:33;17.42;;;10.35;;
5357;SDS011;2702;51.014;7.170;2022-12-18T13:51:25;15.60;;;11.90;;
5357;SDS011;2702;51.014;7.170;2022-12-18T13:56:28;14.00;;;12.00;;
5357;SDS011;2702;51.014;7.170;2022-12-18T13:59:08;17.27;;;10.95;;
5357;SDS011;2702;51.014;7.170;2022-12-18T14:02:07;18.63;;;12.85;;
5357;SDS011;2702;51.014;7.170;2022-12-18T14:04:47;16.67;;;12.07;;
5357;SDS011;2702;51.014;7.170;2022-12-18T14:09:46;17.35;;;11.45;;
5357;SDS011;2702;51.014;7.170;2022-12-18T14:12:35;16.00;;;11.05;;
5357;SDS011;2702;51.014;7.170;2022-12-18T14:17:52;15.48;;;11.85;;
5357;SDS011;2702;51.014;7.170;2022-12-18T14:20:20;17.50;;;11.68;;
5357;SDS011;2702;51.014;7.170;2022-12-18T14:22:48;17.30;;;11.90;;
5357;SDS011;2702;51.014;7.170;2022-12-18T14:25:17;16.75;;;11.40;;
5357;SDS011;2702;51.014;7.170;2022-12-18T14:27:50;17.73;;;11.85;;
5357;SDS011;2702;51.014;7.170;2022-12-18T14:30:33;14.50;;;11.25;;
5357;SDS011;2702;51.014;7.170;2022-12-18T14:35:35;16.15;;;11.07;;
5357;SDS011;2702;51.014;7.170;2022-12-18T14:40:57;17.80;;;12.90;;
5357;SDS011;2702;51.014;7.170;2022-12-18T14:43:28;16.17;;;12.25;;
5357;SDS011;2702;51.014;7.170;2022-12-18T14:45:59;15.35;;;11.90;;
5357;SDS011;2702;51.014;7.170;2022-12-18T14:53:48;16.67;;;11.73;;
5357;SDS011;2702;51.014;7.170;2022-12-18T14:56:42;17.95;;;11.75;;
5357;SDS011;2702;51.014;7.170;2022-12-18T14:59:14;16.85;;;11.65;;
5357;SDS011;2702;51.014;7.170;2022-12-18T15:01:47;19.88;;;12.95;;
5357;SDS011;2702;51.014;7.170;2022-12-18T15:04:35;18.60;;;13.13;;
5357;SDS011;2702;51.014;7.170;2022-12-18T15:09:59;19.45;;;12.50;;
5357;SDS011;2702;51.014;7.170;2022-12-18T15:12:48;16.70;;;11.60;;
5357;SDS011;2702;51.014;7.170;2022-12-18T15:18:03;17.00;;;12.45;;
5357;SDS011;2702;51.014;7.170;2022-12-18T15:20:58;17.80;;;11.27;;
5357;SDS011;2702;51.014;7.170;2022-12-18T15:23:35;19.95;;;12.63;;
5357;SDS011;2702;51.014;7.170;2022-12-18T15:26:11;18.88;;;13.18;;
5357;SDS011;2702;51.014;7.170;2022-12-18T15:28:49;15.35;;;12.52;;
5357;SDS011;2702;51.014;7.170;2022-12-18T15:36:17;16.90;;;12.60;;
5357;SDS011;2702;51.014;7.170;2022-12-18T15:38:47;16.48;;;11.65;;
5357;SDS011;2702;51.014;7.170;2022-12-18T15:41:17;18.77;;;13.15;;
5357;SDS011;2702;51.014;7.170;2022-12-18T15:43:46;22.73;;;13.95;;
5357;SDS011;2702;51.014;7.170;2022-12-18T15:46:18;19.38;;;12.52;;
5357;SDS011;2702;51.014;7.170;2022-12-18T15:48:46;17.33;;;12.63;;
5357;SDS011;2702;51.014;7.170;2022-12-18T15:51:28;21.48;;;13.98;;
5357;SDS011;2702;51.014;7.170;2022-12-18T15:53:57;17.67;;;13.75;;
5357;SDS011;2702;51.014;7.170;2022-12-18T15:56:25;19.20;;;14.10;;
5357;SDS011;2702;51.014;7.170;2022-12-18T15:59:17;19.38;;;13.65;;
5357;SDS011;2702;51.014;7.170;2022-12-18T16:01:46;21.63;;;13.75;;
5357;SDS011;2702;51.014;7.170;2022-12-18T16:04:13;20.88;;;13.48;;
5357;SDS011;2702;51.014;7.170;2022-12-18T16:06:41;24.08;;;14.77;;
5357;SDS011;2702;51.014;7.170;2022-12-18T16:09:07;24.27;;;14.60;;
5357;SDS011;2702;51.014;7.170;2022-12-18T16:11:34;19.02;;;13.60;;
5357;SDS011;2702;51.014;7.170;2022-12-18T16:16:40;19.65;;;14.60;;
5357;SDS011;2702;51.014;7.170;2022-12-18T16:19:06;20.95;;;15.15;;
5357;SDS011;2702;51.014;7.170;2022-12-18T16:21:32;19.60;;;13.82;;
5357;SDS011;2702;51.014;7.170;2022-12-18T16:23:58;19.90;;;14.17;;
5357;SDS011;2702;51.014;7.170;2022-12-18T16:26:24;22.03;;;14.60;;
5357;SDS011;2702;51.014;7.170;2022-12-18T16:28:50;23.20;;;15.77;;
5357;SDS011;2702;51.014;7.170;2022-12-18T16:31:16;19.70;;;14.13;;
5357;SDS011;2702;51.014;7.170;2022-12-18T16:33:42;24.30;;;16.20;;
5357;SDS011;2702;51.014;7.170;2022-12-18T16:36:08;21.77;;;15.30;;
5357;SDS011;2702;51.014;7.170;2022-12-18T16:38:34;24.30;;;14.43;;
5357;SDS011;2702;51.014;7.170;2022-12-18T16:41:00;22.07;;;15.43;;
5357;SDS011;2702;51.014;7.170;2022-12-18T16:43:44;22.27;;;14.77;;
5357;SDS011;2702;51.014;7.170;2022-12-18T16:46:10;21.57;;;15.03;;
5357;SDS011;2702;51.014;7.170;2022-12-18T16:48:36;25.42;;;17.55;;
5357;SDS011;2702;51.014;7.170;2022-12-18T16:51:03;24.30;;;15.97;;
5357;SDS011;2702;51.014;7.170;2022-12-18T16:53:31;24.25;;;16.98;;
5357;SDS011;2702;51.014;7.170;2022-12-18T16:55:58;21.05;;;15.25;;
5357;SDS011;2702;51.014;7.170;2022-12-18T16:58:24;21.33;;;15.10;;
5357;SDS011;2702;51.014;7.170;2022-12-18T17:00:50;22.53;;;16.33;;
5357;SDS011;2702;51.014;7.170;2022-12-18T17:03:16;23.77;;;15.20;;
5357;SDS011;2702;51.014;7.170;2022-12-18T17:05:42;21.63;;;15.87;;
5357;SDS011;2702;51.014;7.170;2022-12-18T17:08:08;25.70;;;15.57;;
5357;SDS011;2702;51.014;7.170;2022-12-18T17:10:34;24.77;;;16.17;;
5357;SDS011;2702;51.014;7.170;2022-12-18T17:13:00;23.60;;;17.25;;
5357;SDS011;2702;51.014;7.170;2022-12-18T17:15:26;25.17;;;16.40;;
5357;SDS011;2702;51.014;7.170;2022-12-18T17:17:52;24.70;;;16.50;;
5357;SDS011;2702;51.014;7.170;2022-12-18T17:20:18;25.70;;;15.73;;
5357;SDS011;2702;51.014;7.170;2022-12-18T17:22:44;25.97;;;17.60;;
5357;SDS011;2702;51.014;7.170;2022-12-18T17:25:10;23.40;;;15.90;;
5357;SDS011;2702;51.014;7.170;2022-12-18T17:27:36;22.60;;;15.83;;
5357;SDS011;2702;51.014;7.170;2022-12-18T17:30:02;25.55;;;17.42;;
5357;SDS011;2702;51.014;7.170;2022-12-18T17:32:28;23.55;;;16.52;;
5357;SDS011;2702;51.014;7.170;2022-12-18T17:34:54;24.93;;;17.67;;
5357;SDS011;2702;51.014;7.170;2022-12-18T17:37:20;26.20;;;16.63;;
5357;SDS011;2702;51.014;7.170;2022-12-18T17:39:46;24.20;;;15.80;;